createdAt,value
2022-11-14T00:01:35.178Z,158659.13
2022-11-14T00:04:25.450Z,158649.81
2022-11-14T00:07:14.766Z,158653.78
2022-11-14T00:10:00.835Z,158655.13
2022-11-14T00:12:47.636Z,158655.13
2022-11-14T00:15:33.564Z,158667.13
2022-11-14T00:18:19.489Z,158667.13
2022-11-14T00:21:05.152Z,158660.44
2022-11-14T00:23:51.507Z,158655.13
2022-11-14T00:26:37.707Z,158661.78
2022-11-14T00:29:24.395Z,158668.44
2022-11-14T00:32:10.530Z,158671.13
2022-11-14T00:34:56.885Z,158672.47
2022-11-14T00:37:43.049Z,158673.78
2022-11-14T00:40:30.309Z,158677.81
2022-11-14T00:43:16.057Z,158677.81
2022-11-14T00:46:02.493Z,158663.16
2022-11-14T00:48:48.246Z,158663.16
2022-11-14T00:51:34.863Z,158680.44
2022-11-14T00:54:20.929Z,158669.75
2022-11-14T00:57:07.346Z,158668.44
2022-11-14T00:59:55.741Z,158661.78
2022-11-14T01:02:42.432Z,158645.81
2022-11-14T01:05:28.609Z,158649.81
2022-11-14T01:08:16.063Z,158627.13
2022-11-14T01:11:11.034Z,158624.50
2022-11-14T01:13:57.058Z,158627.13
2022-11-14T01:16:43.065Z,158644.47
2022-11-14T01:19:28.842Z,158640.47
2022-11-14T01:22:14.373Z,158648.44
2022-11-14T01:25:00.694Z,158647.13
2022-11-14T01:27:46.684Z,158656.50
2022-11-14T01:30:32.970Z,158653.78
2022-11-14T01:33:18.770Z,158656.50
2022-11-14T01:36:06.464Z,158651.16
2022-11-14T01:38:54.173Z,158653.78
2022-11-14T01:41:40.406Z,158651.16
2022-11-14T01:44:45.343Z,158671.13
2022-11-14T01:47:32.981Z,158655.13
2022-11-14T01:50:19.231Z,158640.47
2022-11-14T01:53:05.605Z,158644.47
2022-11-14T01:55:53.037Z,158648.44
2022-11-14T01:58:42.876Z,158652.47
2022-11-14T02:01:31.946Z,158652.47
2022-11-14T02:04:27.180Z,158645.81
2022-11-14T02:07:13.304Z,158632.47
2022-11-14T02:10:00.272Z,158640.47
2022-11-14T02:12:46.562Z,158628.50
2022-11-14T02:15:33.398Z,158641.84
2022-11-14T02:18:19.332Z,158639.13
2022-11-14T02:21:05.619Z,158640.47
2022-11-14T02:23:51.453Z,158644.47
2022-11-14T02:26:38.645Z,158633.81
2022-11-14T02:29:24.491Z,158619.16
2022-11-14T02:32:11.200Z,158620.47
2022-11-14T02:34:57.386Z,158628.50
2022-11-14T02:37:43.897Z,158621.84
2022-11-14T02:40:30.066Z,158627.13
2022-11-14T02:43:16.299Z,158636.50
2022-11-14T02:46:05.587Z,158611.16
2022-11-14T02:48:51.956Z,158609.84
2022-11-14T02:51:38.074Z,158615.19
2022-11-14T02:54:24.583Z,158621.84
2022-11-14T02:57:10.322Z,158625.81
2022-11-14T02:59:56.779Z,158623.16
2022-11-14T03:02:43.047Z,158596.50
2022-11-14T03:05:28.918Z,158591.19
2022-11-14T03:08:14.942Z,158597.84
2022-11-14T03:11:05.756Z,158615.19
2022-11-14T03:13:51.205Z,158595.19
2022-11-14T03:16:37.075Z,158581.88
2022-11-14T03:19:23.116Z,158572.56
2022-11-14T03:22:09.339Z,158588.53
2022-11-14T03:24:55.483Z,158583.19
2022-11-14T03:27:41.921Z,158587.22
2022-11-14T03:30:27.605Z,158573.88
2022-11-14T03:33:13.952Z,158548.56
2022-11-14T03:35:59.537Z,158556.53
2022-11-14T03:38:45.718Z,158561.88
2022-11-14T03:41:31.950Z,158547.25
2022-11-14T03:44:18.375Z,158541.91
2022-11-14T03:47:04.717Z,158553.91
2022-11-14T03:49:51.267Z,158547.25
2022-11-14T03:52:37.262Z,158568.56
2022-11-14T03:55:23.500Z,158568.56
2022-11-14T03:58:09.578Z,158575.22
2022-11-14T04:00:56.337Z,158571.19
2022-11-14T04:03:42.243Z,158597.84
2022-11-14T04:06:28.166Z,158599.16
2022-11-14T04:09:13.963Z,158600.53
2022-11-14T04:12:00.321Z,158603.19
2022-11-14T04:14:46.241Z,158597.84
2022-11-14T04:17:37.043Z,158607.19
2022-11-14T04:20:25.597Z,158608.53
2022-11-14T04:23:11.874Z,158621.84
2022-11-14T04:25:58.077Z,158603.19
2022-11-14T04:28:44.822Z,158585.88
2022-11-14T04:31:30.993Z,158597.84
2022-11-14T04:34:17.162Z,158596.50
2022-11-14T04:37:03.314Z,158613.84
2022-11-14T04:39:49.593Z,158604.50
2022-11-14T04:42:35.395Z,158604.50
2022-11-14T04:45:21.382Z,158609.84
2022-11-14T04:48:07.382Z,158597.84
2022-11-14T04:50:53.353Z,158595.19
2022-11-14T04:53:39.603Z,158608.53
2022-11-14T04:56:26.025Z,158595.19
2022-11-14T04:59:13.081Z,158595.19
2022-11-14T05:02:01.040Z,158591.19
2022-11-14T05:04:48.502Z,158611.16
2022-11-14T05:07:34.859Z,158573.88
2022-11-14T05:10:21.098Z,158571.19
2022-11-14T05:13:06.813Z,158543.22
2022-11-14T05:15:52.890Z,158551.25
2022-11-14T05:18:44.304Z,158545.91
2022-11-14T05:21:32.934Z,158540.59
2022-11-14T05:24:20.089Z,158512.63
2022-11-14T05:27:06.076Z,158513.94
2022-11-14T05:29:52.747Z,158516.63
2022-11-14T05:32:38.716Z,158511.28
2022-11-14T05:35:25.037Z,158531.28
2022-11-14T05:38:11.140Z,158502.00
2022-11-14T05:40:57.472Z,158505.94
2022-11-14T05:43:44.204Z,158505.94
2022-11-14T05:46:30.197Z,158500.63
2022-11-14T05:49:20.650Z,158515.31
2022-11-14T05:52:08.081Z,158523.28
2022-11-14T05:54:54.199Z,158516.63
2022-11-14T05:57:40.435Z,158490.00
2022-11-14T06:00:27.886Z,158515.31
2022-11-14T06:03:15.219Z,158496.66
2022-11-14T06:06:02.901Z,158495.31
2022-11-14T06:08:49.473Z,158487.34
2022-11-14T06:11:35.509Z,158482.00
2022-11-14T06:14:21.563Z,158512.63
2022-11-14T06:17:07.734Z,158491.31
2022-11-14T06:19:53.726Z,158504.63
2022-11-14T06:22:41.010Z,158517.94
2022-11-14T06:25:27.173Z,158519.28
2022-11-14T06:28:13.161Z,158533.91
2022-11-14T06:31:05.648Z,158531.28
2022-11-14T06:33:51.833Z,158523.28
2022-11-14T06:36:38.076Z,158519.28
2022-11-14T06:39:24.450Z,158555.22
2022-11-14T06:42:10.488Z,158525.94
2022-11-14T06:44:56.028Z,158549.88
2022-11-14T06:47:42.586Z,158524.63
2022-11-14T06:50:28.603Z,158511.28
2022-11-14T06:53:14.951Z,158548.56
2022-11-14T06:56:03.315Z,158527.25
2022-11-14T06:58:50.262Z,158537.94
2022-11-14T07:01:36.597Z,158544.59
2022-11-14T07:04:23.302Z,158532.59
2022-11-14T07:07:09.240Z,158547.25
2022-11-14T07:09:56.829Z,158541.91
2022-11-14T07:12:42.881Z,158549.88
2022-11-14T07:15:29.165Z,158567.22
2022-11-14T07:18:15.197Z,158557.91
2022-11-14T07:21:05.034Z,158564.59
2022-11-14T07:23:51.281Z,158564.59
2022-11-14T07:26:38.047Z,158584.50
2022-11-14T07:29:24.043Z,158569.88
2022-11-14T07:32:10.119Z,158575.22
2022-11-14T07:35:01.723Z,158569.88
2022-11-14T07:37:48.612Z,158556.53
2022-11-14T07:40:34.612Z,158540.59
2022-11-14T07:43:20.925Z,158568.56
2022-11-14T07:46:18.227Z,158565.91
2022-11-14T07:49:04.330Z,158573.88
2022-11-14T07:51:50.418Z,158544.59
2022-11-14T07:54:36.425Z,158559.25
2022-11-14T07:57:22.453Z,158568.56
2022-11-14T08:00:10.440Z,158544.59
2022-11-14T08:02:56.287Z,158539.25
2022-11-14T08:05:42.881Z,158541.91
2022-11-14T08:08:29.254Z,158527.25
2022-11-14T08:11:31.741Z,158523.28
2022-11-14T08:14:20.430Z,158528.56
2022-11-14T08:17:06.801Z,158536.63
2022-11-14T08:19:53.471Z,158549.88
2022-11-14T08:22:39.928Z,158523.28
2022-11-14T08:25:26.007Z,158541.91
2022-11-14T08:28:12.422Z,158563.22
2022-11-14T08:31:02.532Z,158557.91
2022-11-14T08:33:52.122Z,158575.22
2022-11-14T08:36:38.401Z,158601.84
2022-11-14T08:39:24.740Z,158617.81
2022-11-14T08:42:10.776Z,158595.19
2022-11-14T08:44:57.201Z,158599.16
2022-11-14T08:47:43.073Z,158600.53
2022-11-14T08:50:29.242Z,158601.84
2022-11-14T08:53:15.519Z,158611.16
2022-11-14T08:56:02.227Z,158620.47
2022-11-14T08:58:48.327Z,158624.50
2022-11-14T09:01:34.660Z,158633.81
2022-11-14T09:04:20.917Z,158611.16
2022-11-14T09:07:07.470Z,158599.16
2022-11-14T09:09:53.575Z,158587.22
2022-11-14T09:12:39.766Z,158575.22
2022-11-14T09:15:25.911Z,158552.59
2022-11-14T09:18:12.635Z,158556.53
2022-11-14T09:21:06.861Z,158541.91
2022-11-14T09:23:57.406Z,158547.25
2022-11-14T09:26:46.217Z,158547.25
2022-11-14T09:29:32.528Z,158568.56
2022-11-14T09:32:18.777Z,158560.56
2022-11-14T09:35:05.481Z,158553.91
2022-11-14T09:37:59.789Z,158560.56
2022-11-14T09:40:56.697Z,158580.56
2022-11-14T09:44:01.746Z,158579.22
2022-11-14T09:47:02.048Z,158591.19
2022-11-14T09:49:50.225Z,158608.53
2022-11-14T09:52:53.003Z,158507.28
2022-11-14T09:55:39.352Z,158571.19
2022-11-14T09:58:27.360Z,158573.88
2022-11-14T10:01:33.310Z,158561.88
2022-11-14T10:04:25.846Z,158588.53
2022-11-14T10:08:02.655Z,158603.19
2022-11-14T10:10:48.757Z,158592.50
2022-11-14T10:13:48.868Z,158596.50
2022-11-14T10:17:07.838Z,158636.50
2022-11-14T10:20:17.306Z,158619.16
2022-11-14T10:23:28.585Z,158601.84
2022-11-14T10:26:18.076Z,158572.56
2022-11-14T10:29:41.245Z,158575.22
2022-11-14T10:33:05.845Z,158580.56
2022-11-14T10:36:11.885Z,158593.88
2022-11-14T10:39:23.780Z,158641.84
2022-11-14T10:42:26.824Z,158652.47
2022-11-14T10:45:28.563Z,158647.13
2022-11-14T10:48:29.424Z,158643.16
2022-11-14T10:51:35.720Z,158605.81
2022-11-14T10:54:25.862Z,158633.81
2022-11-14T10:57:20.245Z,158624.50
2022-11-14T11:00:15.896Z,158620.47
2022-11-14T11:03:01.898Z,158633.81
2022-11-14T11:06:00.012Z,158645.81
2022-11-14T11:09:04.347Z,158629.84
2022-11-14T11:11:59.685Z,158633.81
2022-11-14T11:14:47.279Z,158640.47
2022-11-14T11:17:38.791Z,158657.81
2022-11-14T11:20:36.356Z,158629.84
2022-11-14T11:23:25.816Z,158625.81
2022-11-14T11:26:19.685Z,158619.16
2022-11-14T11:29:12.142Z,158621.84
2022-11-14T11:31:58.957Z,158624.50
2022-11-14T11:34:45.597Z,158635.19
2022-11-14T11:37:34.504Z,158620.47
2022-11-14T11:40:24.402Z,158611.16
2022-11-14T11:43:53.952Z,158592.50
2022-11-14T11:47:12.663Z,158585.88
2022-11-14T11:49:59.701Z,158567.22
2022-11-14T11:52:58.002Z,158568.56
2022-11-14T11:55:51.307Z,158595.19
2022-11-14T11:58:56.986Z,158577.84
2022-11-14T12:01:42.954Z,158575.22
2022-11-14T12:04:30.875Z,158573.88
2022-11-14T12:07:22.706Z,158568.56
2022-11-14T12:10:18.662Z,158573.88
2022-11-14T12:13:29.816Z,158575.22
2022-11-14T12:16:38.286Z,158565.91
2022-11-14T12:19:30.590Z,158565.91
2022-11-14T12:22:33.746Z,158565.91
2022-11-14T12:26:11.131Z,158572.56
2022-11-14T12:29:35.830Z,158548.56
2022-11-14T12:32:34.348Z,158555.22
2022-11-14T12:35:35.759Z,158535.25
2022-11-14T12:38:22.281Z,158553.91
2022-11-14T12:41:09.572Z,158541.91
2022-11-14T12:44:19.210Z,158544.59
2022-11-14T12:47:05.749Z,158541.91
2022-11-14T12:49:55.022Z,158551.25
2022-11-14T12:52:46.205Z,158553.91
2022-11-14T12:55:32.002Z,158543.22
2022-11-14T12:58:21.073Z,158560.56
2022-11-14T13:01:44.500Z,158549.88
2022-11-14T13:04:49.319Z,158561.88
2022-11-14T13:07:53.805Z,158576.53
2022-11-14T13:10:41.532Z,158549.88
2022-11-14T13:13:46.481Z,158532.59
2022-11-14T13:16:51.768Z,158537.94
2022-11-14T13:20:04.949Z,158535.25
2022-11-14T13:22:51.301Z,158541.91
2022-11-14T13:25:37.399Z,158529.94
2022-11-14T13:28:48.894Z,158532.59
2022-11-14T13:31:45.181Z,158521.91
2022-11-14T13:34:50.460Z,158482.00
2022-11-14T13:38:03.036Z,158460.69
2022-11-14T13:41:06.831Z,158451.34
2022-11-14T13:44:11.215Z,158467.38
2022-11-14T13:47:14.461Z,158446.06
2022-11-14T13:50:07.012Z,158462.03
2022-11-14T13:52:53.083Z,158430.03
2022-11-14T13:55:44.973Z,158430.03
2022-11-14T13:58:34.122Z,158408.75
2022-11-14T14:01:43.695Z,158404.78
2022-11-14T14:04:50.921Z,158400.78
2022-11-14T14:07:42.585Z,158415.41
2022-11-14T14:11:00.302Z,158390.16
2022-11-14T14:14:06.306Z,158386.13
2022-11-14T14:17:03.053Z,158356.84
2022-11-14T14:20:13.730Z,158368.84
2022-11-14T14:23:13.293Z,158350.19
2022-11-14T14:26:15.320Z,158340.91
2022-11-14T14:29:31.277Z,158324.88
2022-11-14T14:32:19.140Z,158328.91
2022-11-14T14:35:29.911Z,158296.94
2022-11-14T14:38:29.645Z,158296.94
2022-11-14T14:41:18.695Z,158296.94
2022-11-14T14:44:05.025Z,158287.63
2022-11-14T14:46:52.040Z,158296.94
2022-11-14T14:49:38.707Z,158280.97
2022-11-14T14:52:34.407Z,158278.34
2022-11-14T14:55:27.452Z,158310.25
2022-11-14T14:58:35.169Z,158304.97
2022-11-14T15:01:33.550Z,158310.25
2022-11-14T15:04:21.427Z,158326.25
2022-11-14T15:07:19.350Z,158307.59
2022-11-14T15:10:08.181Z,158322.25
2022-11-14T15:12:54.483Z,158311.63
2022-11-14T15:15:41.022Z,158311.63
2022-11-14T15:18:30.149Z,158343.53
2022-11-14T15:21:24.429Z,158340.91
2022-11-14T15:24:24.717Z,158344.84
2022-11-14T15:27:19.311Z,158350.19
2022-11-14T15:30:07.856Z,158340.91
2022-11-14T15:32:57.139Z,158326.25
2022-11-14T15:35:43.089Z,158302.28
2022-11-14T15:38:43.448Z,158287.63
2022-11-14T15:41:31.406Z,158292.97
2022-11-14T15:44:36.643Z,158292.97
2022-11-14T15:47:26.521Z,158304.97
2022-11-14T15:50:12.629Z,158304.97
2022-11-14T15:53:07.416Z,158279.66
2022-11-14T15:55:53.924Z,158287.63
2022-11-14T15:58:43.037Z,158275.66
2022-11-14T16:01:31.656Z,158250.41
2022-11-14T16:04:20.814Z,158255.72
2022-11-14T16:07:07.556Z,158249.06
2022-11-14T16:09:54.315Z,158259.69
2022-11-14T16:12:40.725Z,158269.00
2022-11-14T16:15:26.801Z,158261.00
2022-11-14T16:18:13.205Z,158282.31
2022-11-14T16:20:59.845Z,158266.34
2022-11-14T16:23:46.546Z,158267.66
2022-11-14T16:26:33.133Z,158254.34
2022-11-14T16:29:19.163Z,158254.34
2022-11-14T16:32:05.361Z,158267.66
2022-11-14T16:34:51.430Z,158262.38
2022-11-14T16:37:37.618Z,158246.38
2022-11-14T16:40:28.857Z,158258.38
2022-11-14T16:43:15.208Z,158246.38
2022-11-14T16:46:05.207Z,158247.69
2022-11-14T16:48:51.543Z,158253.03
2022-11-14T16:51:47.604Z,158255.72
2022-11-14T16:54:34.887Z,158249.06
2022-11-14T16:57:21.765Z,158225.09
2022-11-14T17:00:10.958Z,158258.38
2022-11-14T17:02:57.154Z,158245.06
2022-11-14T17:05:48.834Z,158254.34
2022-11-14T17:08:34.907Z,158257.06
2022-11-14T17:11:21.338Z,158262.38
2022-11-14T17:14:07.928Z,158273.00
2022-11-14T17:16:54.207Z,158286.31
2022-11-14T17:19:46.200Z,158302.28
2022-11-14T17:22:31.919Z,158285.00
2022-11-14T17:25:18.633Z,158270.38
2022-11-14T17:28:05.795Z,158287.63
2022-11-14T17:30:52.301Z,158267.66
2022-11-14T17:33:38.814Z,158278.34
2022-11-14T17:36:27.274Z,158270.38
2022-11-14T17:39:13.478Z,158254.34
2022-11-14T17:42:00.031Z,158266.34
2022-11-14T17:44:45.576Z,158278.34
2022-11-14T17:47:31.694Z,158278.34
2022-11-14T17:50:17.672Z,158267.66
2022-11-14T17:53:03.968Z,158227.78
2022-11-14T17:55:57.636Z,158242.41
2022-11-14T17:58:44.301Z,158223.78
2022-11-14T18:01:31.706Z,158231.75
2022-11-14T18:04:18.010Z,158237.09
2022-11-14T18:07:04.202Z,158211.78
2022-11-14T18:09:50.764Z,158219.75
2022-11-14T18:12:36.713Z,158190.50
2022-11-14T18:15:27.789Z,158179.88
2022-11-14T18:18:14.203Z,158183.84
2022-11-14T18:21:14.977Z,158177.19
2022-11-14T18:24:01.072Z,158162.56
2022-11-14T18:26:47.147Z,158155.91
2022-11-14T18:29:32.945Z,158141.28
2022-11-14T18:32:19.544Z,158147.94
2022-11-14T18:35:06.200Z,158153.25
2022-11-14T18:37:52.302Z,158158.59
2022-11-14T18:40:38.216Z,158167.88
2022-11-14T18:43:25.158Z,158175.88
2022-11-14T18:46:17.617Z,158194.50
2022-11-14T18:49:04.257Z,158191.81
2022-11-14T18:51:50.339Z,158186.53
2022-11-14T18:54:36.449Z,158183.84
2022-11-14T18:57:22.623Z,158167.88
2022-11-14T19:00:09.958Z,158158.59
2022-11-14T19:02:55.935Z,158174.53
2022-11-14T19:05:42.326Z,158187.84
2022-11-14T19:08:28.398Z,158173.22
2022-11-14T19:11:36.446Z,158169.22
2022-11-14T19:14:22.547Z,158155.91
2022-11-14T19:17:09.312Z,158157.28
2022-11-14T19:19:55.248Z,158166.56
2022-11-14T19:22:41.544Z,158151.94
2022-11-14T19:25:27.528Z,158134.56
2022-11-14T19:28:13.656Z,158139.91
2022-11-14T19:31:04.365Z,158147.94
2022-11-14T19:33:50.889Z,158151.94
2022-11-14T19:39:43.453Z,158121.25
2022-11-14T19:42:29.503Z,158154.59
2022-11-14T19:45:15.618Z,158147.94
2022-11-14T19:48:02.052Z,158151.94
2022-11-14T19:50:48.352Z,158143.97
2022-11-14T19:53:35.464Z,158146.59
2022-11-14T19:56:23.338Z,158186.53
2022-11-14T19:59:14.016Z,158182.53
2022-11-14T20:02:01.186Z,158174.53
2022-11-14T20:04:47.080Z,158159.91
2022-11-14T20:07:35.555Z,158163.88
2022-11-14T20:10:21.389Z,158141.28
2022-11-14T20:13:07.616Z,158127.91
2022-11-14T20:15:53.606Z,158133.25
2022-11-14T20:18:41.152Z,158135.94
2022-11-14T20:21:29.583Z,158150.63
2022-11-14T20:24:21.693Z,158138.59
2022-11-14T20:27:07.476Z,158130.59
2022-11-14T20:29:54.018Z,158145.28
2022-11-14T20:32:40.503Z,158129.28
2022-11-14T20:35:26.652Z,158134.56
2022-11-14T20:38:12.918Z,158121.25
2022-11-14T20:41:00.713Z,158139.91
2022-11-14T20:43:46.348Z,158143.97
2022-11-14T20:46:32.850Z,158134.56
2022-11-14T20:49:18.617Z,158118.63
2022-11-14T20:52:05.790Z,158117.31
2022-11-14T20:54:51.662Z,158113.28
2022-11-14T20:57:37.992Z,158114.59
2022-11-14T21:00:23.958Z,158097.34
2022-11-14T21:03:10.620Z,158122.63
2022-11-14T21:05:57.195Z,158097.34
2022-11-14T21:08:43.902Z,158101.34
2022-11-14T21:11:30.125Z,158070.72
2022-11-14T21:14:16.705Z,158077.38
2022-11-14T21:17:02.561Z,158077.38
2022-11-14T21:19:49.363Z,158097.34
2022-11-14T21:22:35.454Z,158102.66
2022-11-14T21:25:21.720Z,158096.03
2022-11-14T21:28:07.906Z,158113.28
2022-11-14T21:30:54.377Z,158093.31
2022-11-14T21:33:41.018Z,158092.00
2022-11-14T21:36:45.947Z,158088.06
2022-11-14T21:39:32.621Z,158097.34
2022-11-14T21:42:19.046Z,158118.63
2022-11-14T21:45:06.072Z,158105.31
2022-11-14T21:47:52.379Z,158109.31
2022-11-14T21:50:38.093Z,158101.34
2022-11-14T21:53:24.645Z,158086.69
2022-11-14T21:56:22.308Z,158084.03
2022-11-14T21:59:16.143Z,158088.06
2022-11-14T22:02:20.507Z,158089.38
2022-11-14T22:05:07.414Z,158101.34
2022-11-14T22:07:53.338Z,158097.34
2022-11-14T22:10:39.876Z,158102.66
2022-11-14T22:13:25.953Z,158096.03
2022-11-14T22:16:16.271Z,158101.34
2022-11-14T22:19:05.541Z,158085.34
2022-11-14T22:21:53.240Z,158070.72
2022-11-14T22:24:39.272Z,158093.31
2022-11-14T22:27:26.503Z,158072.06
2022-11-14T22:30:12.916Z,158060.13
2022-11-14T22:33:00.513Z,158057.41
2022-11-14T22:35:46.549Z,158057.41
2022-11-14T22:38:34.574Z,158044.13
2022-11-14T22:41:33.210Z,158073.41
2022-11-14T22:44:20.018Z,158081.38
2022-11-14T22:47:05.966Z,158060.13
2022-11-14T22:49:52.241Z,158058.78
2022-11-14T22:52:38.347Z,158062.75
2022-11-14T22:55:24.495Z,158062.75
2022-11-14T22:58:10.571Z,158054.78
2022-11-14T23:00:56.665Z,158049.44
2022-11-14T23:03:42.874Z,158056.09
2022-11-14T23:06:30.801Z,158049.44
2022-11-14T23:09:17.251Z,158032.19
2022-11-14T23:12:03.621Z,158033.50
2022-11-14T23:14:49.301Z,158024.22
2022-11-14T23:17:35.622Z,158006.91
2022-11-14T23:20:21.836Z,157990.97
2022-11-14T23:23:08.257Z,157998.94
2022-11-14T23:25:55.846Z,157990.97
2022-11-14T23:28:42.736Z,157990.97
2022-11-14T23:31:28.876Z,158000.25
2022-11-14T23:34:15.226Z,158001.56
2022-11-14T23:37:01.266Z,158000.25
2022-11-14T23:39:47.605Z,157978.97
2022-11-14T23:42:33.482Z,157992.28
2022-11-14T23:45:19.904Z,157967.00
2022-11-14T23:48:06.136Z,157949.75
2022-11-14T23:50:54.294Z,157945.72
2022-11-14T23:53:40.072Z,157941.75
2022-11-14T23:56:26.380Z,157960.41
2022-11-14T23:59:12.640Z,157945.72
